LFPM 232230Z AUTO 09005KT CAVOK 24/10 Q1014

Les avions qui composent notre flotte

Beechcraft 33 Bonanza

Le haut de gamme de l'aviation légère
IFR, Pas variable, Train rentrant

F-BRIZ


F-BRIZ Planche